sensor_id;sensor_type;location;lat;lon;timestamp;P1;durP1;ratioP1;P2;durP2;ratioP2
52124;SDS011;38119;52.710;6.398;2023-12-14T00:01:59;15.10;;;10.50;;
52124;SDS011;38119;52.710;6.398;2023-12-14T00:04:24;14.65;;;10.43;;
52124;SDS011;38119;52.710;6.398;2023-12-14T00:06:50;15.40;;;10.90;;
52124;SDS011;38119;52.710;6.398;2023-12-14T00:09:16;14.38;;;10.27;;
52124;SDS011;38119;52.710;6.398;2023-12-14T00:11:41;14.20;;;10.57;;
52124;SDS011;38119;52.710;6.398;2023-12-14T00:14:07;14.55;;;9.90;;
52124;SDS011;38119;52.710;6.398;2023-12-14T00:16:32;13.82;;;10.25;;
52124;SDS011;38119;52.710;6.398;2023-12-14T00:18:58;13.82;;;9.90;;
52124;SDS011;38119;52.710;6.398;2023-12-14T00:21:23;13.23;;;9.07;;
52124;SDS011;38119;52.710;6.398;2023-12-14T00:23:49;15.18;;;10.15;;
52124;SDS011;38119;52.710;6.398;2023-12-14T00:26:15;14.13;;;9.55;;
52124;SDS011;38119;52.710;6.398;2023-12-14T00:28:42;13.68;;;9.65;;
52124;SDS011;38119;52.710;6.398;2023-12-14T00:31:07;14.75;;;9.45;;
52124;SDS011;38119;52.710;6.398;2023-12-14T00:33:33;14.85;;;10.48;;
52124;SDS011;38119;52.710;6.398;2023-12-14T00:35:59;13.75;;;9.75;;
52124;SDS011;38119;52.710;6.398;2023-12-14T00:38:24;15.18;;;9.90;;
52124;SDS011;38119;52.710;6.398;2023-12-14T00:40:50;13.63;;;9.30;;
52124;SDS011;38119;52.710;6.398;2023-12-14T00:43:15;12.25;;;8.63;;
52124;SDS011;38119;52.710;6.398;2023-12-14T00:45:41;12.60;;;9.00;;
52124;SDS011;38119;52.710;6.398;2023-12-14T00:48:07;14.77;;;9.20;;
52124;SDS011;38119;52.710;6.398;2023-12-14T00:50:32;14.30;;;9.18;;
52124;SDS011;38119;52.710;6.398;2023-12-14T00:52:58;12.30;;;9.15;;
52124;SDS011;38119;52.710;6.398;2023-12-14T00:55:24;12.73;;;9.30;;
52124;SDS011;38119;52.710;6.398;2023-12-14T00:57:49;13.55;;;9.07;;
52124;SDS011;38119;52.710;6.398;2023-12-14T01:00:15;14.95;;;9.10;;
52124;SDS011;38119;52.710;6.398;2023-12-14T01:02:41;12.40;;;8.75;;
52124;SDS011;38119;52.710;6.398;2023-12-14T01:05:06;13.18;;;8.65;;
52124;SDS011;38119;52.710;6.398;2023-12-14T01:07:32;12.30;;;8.65;;
52124;SDS011;38119;52.710;6.398;2023-12-14T01:09:58;13.23;;;8.52;;
52124;SDS011;38119;52.710;6.398;2023-12-14T01:12:23;11.40;;;7.78;;
52124;SDS011;38119;52.710;6.398;2023-12-14T01:14:49;12.65;;;7.82;;
52124;SDS011;38119;52.710;6.398;2023-12-14T01:17:14;12.25;;;8.27;;
52124;SDS011;38119;52.710;6.398;2023-12-14T01:19:40;15.18;;;8.55;;
52124;SDS011;38119;52.710;6.398;2023-12-14T01:22:06;12.85;;;8.23;;
52124;SDS011;38119;52.710;6.398;2023-12-14T01:24:32;15.00;;;7.72;;
52124;SDS011;38119;52.710;6.398;2023-12-14T01:26:58;15.23;;;8.13;;
52124;SDS011;38119;52.710;6.398;2023-12-14T01:29:23;11.27;;;7.90;;
52124;SDS011;38119;52.710;6.398;2023-12-14T01:31:49;13.27;;;8.60;;
52124;SDS011;38119;52.710;6.398;2023-12-14T01:34:14;13.55;;;8.07;;
52124;SDS011;38119;52.710;6.398;2023-12-14T01:36:40;13.95;;;8.30;;
52124;SDS011;38119;52.710;6.398;2023-12-14T01:39:06;14.30;;;8.77;;
52124;SDS011;38119;52.710;6.398;2023-12-14T01:41:32;14.10;;;8.57;;
52124;SDS011;38119;52.710;6.398;2023-12-14T01:43:58;11.63;;;8.10;;
52124;SDS011;38119;52.710;6.398;2023-12-14T01:46:23;12.98;;;8.43;;
52124;SDS011;38119;52.710;6.398;2023-12-14T01:48:49;14.25;;;8.13;;
52124;SDS011;38119;52.710;6.398;2023-12-14T01:51:15;13.55;;;8.40;;
52124;SDS011;38119;52.710;6.398;2023-12-14T01:53:40;11.55;;;7.85;;
52124;SDS011;38119;52.710;6.398;2023-12-14T01:56:06;12.77;;;9.10;;
52124;SDS011;38119;52.710;6.398;2023-12-14T01:58:32;14.02;;;8.77;;
52124;SDS011;38119;52.710;6.398;2023-12-14T02:01:02;13.98;;;8.70;;
52124;SDS011;38119;52.710;6.398;2023-12-14T02:03:32;12.18;;;8.13;;
52124;SDS011;38119;52.710;6.398;2023-12-14T02:05:57;12.43;;;8.43;;
52124;SDS011;38119;52.710;6.398;2023-12-14T02:08:27;13.80;;;8.77;;
52124;SDS011;38119;52.710;6.398;2023-12-14T02:10:53;14.70;;;7.93;;
52124;SDS011;38119;52.710;6.398;2023-12-14T02:13:19;15.05;;;8.48;;
52124;SDS011;38119;52.710;6.398;2023-12-14T02:15:45;14.65;;;9.15;;
52124;SDS011;38119;52.710;6.398;2023-12-14T02:18:10;14.18;;;8.10;;
52124;SDS011;38119;52.710;6.398;2023-12-14T02:20:36;13.52;;;8.90;;
52124;SDS011;38119;52.710;6.398;2023-12-14T02:23:01;13.27;;;8.05;;
52124;SDS011;38119;52.710;6.398;2023-12-14T02:25:27;12.32;;;8.45;;
52124;SDS011;38119;52.710;6.398;2023-12-14T02:27:53;17.48;;;8.40;;
52124;SDS011;38119;52.710;6.398;2023-12-14T02:30:18;12.95;;;8.00;;
52124;SDS011;38119;52.710;6.398;2023-12-14T02:32:44;14.70;;;8.82;;
52124;SDS011;38119;52.710;6.398;2023-12-14T02:35:10;12.93;;;8.60;;
52124;SDS011;38119;52.710;6.398;2023-12-14T02:37:35;12.63;;;8.45;;
52124;SDS011;38119;52.710;6.398;2023-12-14T02:40:06;16.48;;;8.52;;
52124;SDS011;38119;52.710;6.398;2023-12-14T02:42:32;12.70;;;8.40;;
52124;SDS011;38119;52.710;6.398;2023-12-14T02:44:58;14.52;;;7.45;;
52124;SDS011;38119;52.710;6.398;2023-12-14T02:47:24;12.73;;;8.55;;
52124;SDS011;38119;52.710;6.398;2023-12-14T02:49:49;14.32;;;8.15;;
52124;SDS011;38119;52.710;6.398;2023-12-14T02:52:15;13.43;;;7.43;;
52124;SDS011;38119;52.710;6.398;2023-12-14T02:54:41;14.45;;;7.82;;
52124;SDS011;38119;52.710;6.398;2023-12-14T02:57:06;11.40;;;7.50;;
52124;SDS011;38119;52.710;6.398;2023-12-14T02:59:32;11.40;;;7.63;;
52124;SDS011;38119;52.710;6.398;2023-12-14T03:01:58;12.93;;;7.57;;
52124;SDS011;38119;52.710;6.398;2023-12-14T03:04:23;13.85;;;7.82;;
52124;SDS011;38119;52.710;6.398;2023-12-14T03:06:49;12.02;;;7.78;;
52124;SDS011;38119;52.710;6.398;2023-12-14T03:09:15;17.10;;;8.50;;
52124;SDS011;38119;52.710;6.398;2023-12-14T03:11:40;12.25;;;7.95;;
52124;SDS011;38119;52.710;6.398;2023-12-14T03:14:06;13.50;;;7.57;;
52124;SDS011;38119;52.710;6.398;2023-12-14T03:16:31;12.95;;;7.43;;
52124;SDS011;38119;52.710;6.398;2023-12-14T03:18:57;11.85;;;7.82;;
52124;SDS011;38119;52.710;6.398;2023-12-14T03:21:23;11.93;;;7.28;;
52124;SDS011;38119;52.710;6.398;2023-12-14T03:23:49;11.48;;;7.47;;
52124;SDS011;38119;52.710;6.398;2023-12-14T03:26:15;13.35;;;7.18;;
52124;SDS011;38119;52.710;6.398;2023-12-14T03:28:41;12.55;;;7.20;;
52124;SDS011;38119;52.710;6.398;2023-12-14T03:31:07;11.57;;;7.57;;
52124;SDS011;38119;52.710;6.398;2023-12-14T03:33:38;11.43;;;7.18;;
52124;SDS011;38119;52.710;6.398;2023-12-14T03:36:04;11.65;;;7.32;;
52124;SDS011;38119;52.710;6.398;2023-12-14T03:38:31;12.43;;;7.72;;
52124;SDS011;38119;52.710;6.398;2023-12-14T03:40:56;12.32;;;7.03;;
52124;SDS011;38119;52.710;6.398;2023-12-14T03:43:22;13.68;;;7.90;;
52124;SDS011;38119;52.710;6.398;2023-12-14T03:45:48;12.15;;;8.00;;
52124;SDS011;38119;52.710;6.398;2023-12-14T03:48:13;14.35;;;7.00;;
52124;SDS011;38119;52.710;6.398;2023-12-14T03:50:39;11.63;;;7.15;;
52124;SDS011;38119;52.710;6.398;2023-12-14T03:53:05;12.70;;;7.65;;
52124;SDS011;38119;52.710;6.398;2023-12-14T03:55:30;12.55;;;7.57;;
52124;SDS011;38119;52.710;6.398;2023-12-14T03:57:56;13.55;;;8.40;;
52124;SDS011;38119;52.710;6.398;2023-12-14T04:00:21;14.38;;;7.63;;
52124;SDS011;38119;52.710;6.398;2023-12-14T04:02:47;12.93;;;7.43;;
52124;SDS011;38119;52.710;6.398;2023-12-14T04:05:13;13.27;;;7.10;;
52124;SDS011;38119;52.710;6.398;2023-12-14T04:07:38;14.43;;;7.13;;
52124;SDS011;38119;52.710;6.398;2023-12-14T04:10:12;10.35;;;6.72;;
52124;SDS011;38119;52.710;6.398;2023-12-14T04:12:38;12.73;;;6.90;;
52124;SDS011;38119;52.710;6.398;2023-12-14T04:15:04;13.73;;;7.68;;
52124;SDS011;38119;52.710;6.398;2023-12-14T04:17:32;12.52;;;7.00;;
52124;SDS011;38119;52.710;6.398;2023-12-14T04:19:57;15.20;;;7.43;;
52124;SDS011;38119;52.710;6.398;2023-12-14T04:22:23;13.30;;;7.43;;
52124;SDS011;38119;52.710;6.398;2023-12-14T04:24:49;14.65;;;7.63;;
52124;SDS011;38119;52.710;6.398;2023-12-14T04:27:15;13.63;;;7.22;;
52124;SDS011;38119;52.710;6.398;2023-12-14T04:29:41;12.80;;;7.03;;
52124;SDS011;38119;52.710;6.398;2023-12-14T04:32:07;12.18;;;7.03;;
52124;SDS011;38119;52.710;6.398;2023-12-14T04:34:33;12.02;;;6.93;;
52124;SDS011;38119;52.710;6.398;2023-12-14T04:36:58;12.30;;;6.90;;
52124;SDS011;38119;52.710;6.398;2023-12-14T04:39:24;14.02;;;7.18;;
52124;SDS011;38119;52.710;6.398;2023-12-14T04:41:50;13.00;;;7.30;;
52124;SDS011;38119;52.710;6.398;2023-12-14T04:44:17;12.32;;;7.07;;
52124;SDS011;38119;52.710;6.398;2023-12-14T04:46:46;14.02;;;6.80;;
52124;SDS011;38119;52.710;6.398;2023-12-14T04:49:15;11.77;;;7.00;;
52124;SDS011;38119;52.710;6.398;2023-12-14T04:51:41;11.95;;;7.35;;
52124;SDS011;38119;52.710;6.398;2023-12-14T04:54:07;12.30;;;7.72;;
52124;SDS011;38119;52.710;6.398;2023-12-14T04:56:33;12.52;;;7.18;;
52124;SDS011;38119;52.710;6.398;2023-12-14T04:58:59;13.32;;;7.75;;
52124;SDS011;38119;52.710;6.398;2023-12-14T05:01:25;12.85;;;7.45;;
52124;SDS011;38119;52.710;6.398;2023-12-14T05:03:53;11.68;;;7.40;;
52124;SDS011;38119;52.710;6.398;2023-12-14T05:06:20;13.93;;;7.00;;
52124;SDS011;38119;52.710;6.398;2023-12-14T05:08:46;11.52;;;7.32;;
52124;SDS011;38119;52.710;6.398;2023-12-14T05:11:12;12.85;;;7.45;;
52124;SDS011;38119;52.710;6.398;2023-12-14T05:13:38;13.25;;;7.82;;
52124;SDS011;38119;52.710;6.398;2023-12-14T05:16:04;12.57;;;7.35;;
52124;SDS011;38119;52.710;6.398;2023-12-14T05:18:30;14.30;;;7.95;;
52124;SDS011;38119;52.710;6.398;2023-12-14T05:20:55;14.68;;;8.05;;
52124;SDS011;38119;52.710;6.398;2023-12-14T05:23:21;15.30;;;8.13;;
52124;SDS011;38119;52.710;6.398;2023-12-14T05:25:47;13.48;;;8.00;;
52124;SDS011;38119;52.710;6.398;2023-12-14T05:28:12;13.43;;;8.18;;
52124;SDS011;38119;52.710;6.398;2023-12-14T05:30:38;15.43;;;8.23;;
52124;SDS011;38119;52.710;6.398;2023-12-14T05:33:03;15.60;;;7.93;;
52124;SDS011;38119;52.710;6.398;2023-12-14T05:35:29;14.75;;;8.45;;
52124;SDS011;38119;52.710;6.398;2023-12-14T05:37:55;17.30;;;8.35;;
52124;SDS011;38119;52.710;6.398;2023-12-14T05:40:21;15.65;;;8.07;;
52124;SDS011;38119;52.710;6.398;2023-12-14T05:42:46;15.00;;;7.53;;
52124;SDS011;38119;52.710;6.398;2023-12-14T05:45:12;14.23;;;8.00;;
52124;SDS011;38119;52.710;6.398;2023-12-14T05:47:38;14.65;;;8.15;;
52124;SDS011;38119;52.710;6.398;2023-12-14T05:50:04;13.10;;;8.02;;
52124;SDS011;38119;52.710;6.398;2023-12-14T05:52:30;16.63;;;8.13;;
52124;SDS011;38119;52.710;6.398;2023-12-14T05:54:56;14.55;;;8.75;;
52124;SDS011;38119;52.710;6.398;2023-12-14T05:57:21;15.15;;;8.48;;
52124;SDS011;38119;52.710;6.398;2023-12-14T05:59:47;15.15;;;8.30;;
52124;SDS011;38119;52.710;6.398;2023-12-14T06:02:14;12.35;;;7.85;;
52124;SDS011;38119;52.710;6.398;2023-12-14T06:04:40;18.00;;;8.95;;
52124;SDS011;38119;52.710;6.398;2023-12-14T06:07:06;16.13;;;8.38;;
52124;SDS011;38119;52.710;6.398;2023-12-14T06:09:31;14.88;;;8.75;;
52124;SDS011;38119;52.710;6.398;2023-12-14T06:12:02;14.40;;;8.55;;
52124;SDS011;38119;52.710;6.398;2023-12-14T06:14:29;13.90;;;7.78;;
52124;SDS011;38119;52.710;6.398;2023-12-14T06:16:55;14.25;;;8.23;;
52124;SDS011;38119;52.710;6.398;2023-12-14T06:19:21;15.52;;;8.02;;
52124;SDS011;38119;52.710;6.398;2023-12-14T06:21:47;17.40;;;8.10;;
52124;SDS011;38119;52.710;6.398;2023-12-14T06:24:13;15.43;;;8.27;;
52124;SDS011;38119;52.710;6.398;2023-12-14T06:26:42;14.65;;;7.85;;
52124;SDS011;38119;52.710;6.398;2023-12-14T06:29:11;15.68;;;8.27;;
52124;SDS011;38119;52.710;6.398;2023-12-14T06:31:37;16.30;;;8.98;;
52124;SDS011;38119;52.710;6.398;2023-12-14T06:34:03;15.13;;;8.07;;
52124;SDS011;38119;52.710;6.398;2023-12-14T06:36:30;13.88;;;9.02;;
52124;SDS011;38119;52.710;6.398;2023-12-14T06:38:57;15.10;;;8.40;;
52124;SDS011;38119;52.710;6.398;2023-12-14T06:41:23;16.83;;;8.77;;
52124;SDS011;38119;52.710;6.398;2023-12-14T06:43:50;15.90;;;9.02;;
52124;SDS011;38119;52.710;6.398;2023-12-14T06:46:16;15.50;;;8.68;;
52124;SDS011;38119;52.710;6.398;2023-12-14T06:48:42;16.17;;;8.75;;
52124;SDS011;38119;52.710;6.398;2023-12-14T06:51:07;14.55;;;9.57;;
52124;SDS011;38119;52.710;6.398;2023-12-14T06:53:34;19.85;;;9.13;;
52124;SDS011;38119;52.710;6.398;2023-12-14T06:56:00;17.67;;;8.63;;
52124;SDS011;38119;52.710;6.398;2023-12-14T06:58:26;17.00;;;9.15;;
52124;SDS011;38119;52.710;6.398;2023-12-14T07:00:51;14.73;;;9.02;;
52124;SDS011;38119;52.710;6.398;2023-12-14T07:03:17;15.38;;;8.93;;
52124;SDS011;38119;52.710;6.398;2023-12-14T07:05:42;16.13;;;9.07;;
52124;SDS011;38119;52.710;6.398;2023-12-14T07:08:08;15.43;;;8.90;;
52124;SDS011;38119;52.710;6.398;2023-12-14T07:10:33;16.88;;;9.02;;
52124;SDS011;38119;52.710;6.398;2023-12-14T07:12:59;18.13;;;8.85;;
52124;SDS011;38119;52.710;6.398;2023-12-14T07:15:25;17.20;;;8.73;;
52124;SDS011;38119;52.710;6.398;2023-12-14T07:17:50;16.52;;;8.98;;
52124;SDS011;38119;52.710;6.398;2023-12-14T07:20:16;20.83;;;12.63;;
52124;SDS011;38119;52.710;6.398;2023-12-14T07:22:41;21.58;;;10.43;;
52124;SDS011;38119;52.710;6.398;2023-12-14T07:25:07;16.60;;;9.30;;
52124;SDS011;38119;52.710;6.398;2023-12-14T07:27:33;16.27;;;9.23;;
52124;SDS011;38119;52.710;6.398;2023-12-14T07:29:59;15.90;;;8.88;;
52124;SDS011;38119;52.710;6.398;2023-12-14T07:32:24;13.80;;;9.30;;
52124;SDS011;38119;52.710;6.398;2023-12-14T07:34:50;20.20;;;12.50;;
52124;SDS011;38119;52.710;6.398;2023-12-14T07:37:15;17.52;;;10.88;;
52124;SDS011;38119;52.710;6.398;2023-12-14T07:39:41;20.75;;;12.82;;
52124;SDS011;38119;52.710;6.398;2023-12-14T07:42:07;25.98;;;15.63;;
52124;SDS011;38119;52.710;6.398;2023-12-14T07:44:32;23.13;;;13.73;;
52124;SDS011;38119;52.710;6.398;2023-12-14T07:47:01;20.42;;;13.32;;
52124;SDS011;38119;52.710;6.398;2023-12-14T07:49:27;20.83;;;14.80;;
52124;SDS011;38119;52.710;6.398;2023-12-14T07:51:53;17.38;;;12.07;;
52124;SDS011;38119;52.710;6.398;2023-12-14T07:54:18;18.88;;;11.52;;
52124;SDS011;38119;52.710;6.398;2023-12-14T07:56:44;14.93;;;9.75;;
52124;SDS011;38119;52.710;6.398;2023-12-14T07:59:10;19.48;;;10.38;;
52124;SDS011;38119;52.710;6.398;2023-12-14T08:01:36;18.48;;;10.55;;
52124;SDS011;38119;52.710;6.398;2023-12-14T08:04:02;19.83;;;10.63;;
52124;SDS011;38119;52.710;6.398;2023-12-14T08:06:29;16.05;;;9.52;;
52124;SDS011;38119;52.710;6.398;2023-12-14T08:08:55;17.88;;;11.30;;
52124;SDS011;38119;52.710;6.398;2023-12-14T08:11:23;20.52;;;11.15;;
52124;SDS011;38119;52.710;6.398;2023-12-14T08:13:49;19.63;;;12.10;;
52124;SDS011;38119;52.710;6.398;2023-12-14T08:16:14;17.25;;;10.73;;
52124;SDS011;38119;52.710;6.398;2023-12-14T08:18:42;19.67;;;10.23;;
52124;SDS011;38119;52.710;6.398;2023-12-14T08:21:10;18.30;;;10.00;;
52124;SDS011;38119;52.710;6.398;2023-12-14T08:23:36;24.63;;;15.40;;
52124;SDS011;38119;52.710;6.398;2023-12-14T08:26:02;26.95;;;17.35;;
52124;SDS011;38119;52.710;6.398;2023-12-14T08:28:28;22.98;;;13.63;;
52124;SDS011;38119;52.710;6.398;2023-12-14T08:30:53;24.60;;;14.07;;
52124;SDS011;38119;52.710;6.398;2023-12-14T08:33:19;22.80;;;13.10;;
52124;SDS011;38119;52.710;6.398;2023-12-14T08:35:44;16.92;;;11.10;;
52124;SDS011;38119;52.710;6.398;2023-12-14T08:38:10;22.45;;;12.30;;
52124;SDS011;38119;52.710;6.398;2023-12-14T08:40:36;22.33;;;12.40;;
52124;SDS011;38119;52.710;6.398;2023-12-14T08:43:02;20.33;;;13.98;;
52124;SDS011;38119;52.710;6.398;2023-12-14T08:45:28;17.27;;;11.18;;
52124;SDS011;38119;52.710;6.398;2023-12-14T08:47:54;19.02;;;11.73;;
52124;SDS011;38119;52.710;6.398;2023-12-14T08:50:20;19.50;;;11.05;;
52124;SDS011;38119;52.710;6.398;2023-12-14T08:52:46;17.40;;;9.88;;
52124;SDS011;38119;52.710;6.398;2023-12-14T08:55:13;17.55;;;11.35;;
52124;SDS011;38119;52.710;6.398;2023-12-14T08:57:39;17.30;;;9.82;;
52124;SDS011;38119;52.710;6.398;2023-12-14T09:00:05;16.48;;;10.00;;
52124;SDS011;38119;52.710;6.398;2023-12-14T09:02:32;19.00;;;10.57;;
52124;SDS011;38119;52.710;6.398;2023-12-14T09:04:57;17.23;;;10.20;;
52124;SDS011;38119;52.710;6.398;2023-12-14T09:07:23;20.42;;;10.63;;
52124;SDS011;38119;52.710;6.398;2023-12-14T09:09:49;15.63;;;9.93;;
52124;SDS011;38119;52.710;6.398;2023-12-14T09:12:14;18.23;;;10.18;;
52124;SDS011;38119;52.710;6.398;2023-12-14T09:14:40;16.85;;;12.13;;
52124;SDS011;38119;52.710;6.398;2023-12-14T09:17:06;27.65;;;21.45;;
52124;SDS011;38119;52.710;6.398;2023-12-14T09:19:31;32.70;;;25.15;;
52124;SDS011;38119;52.710;6.398;2023-12-14T09:21:57;22.65;;;14.82;;
52124;SDS011;38119;52.710;6.398;2023-12-14T09:24:23;20.15;;;11.40;;
52124;SDS011;38119;52.710;6.398;2023-12-14T09:26:49;15.80;;;9.93;;
52124;SDS011;38119;52.710;6.398;2023-12-14T09:29:14;15.85;;;9.68;;
52124;SDS011;38119;52.710;6.398;2023-12-14T09:31:41;15.63;;;9.43;;
52124;SDS011;38119;52.710;6.398;2023-12-14T09:34:08;17.50;;;9.27;;
52124;SDS011;38119;52.710;6.398;2023-12-14T09:36:34;21.80;;;14.95;;
52124;SDS011;38119;52.710;6.398;2023-12-14T09:39:00;25.27;;;16.05;;
52124;SDS011;38119;52.710;6.398;2023-12-14T09:41:25;16.05;;;10.75;;
52124;SDS011;38119;52.710;6.398;2023-12-14T09:43:51;15.07;;;9.40;;
52124;SDS011;38119;52.710;6.398;2023-12-14T09:46:17;19.38;;;10.63;;
52124;SDS011;38119;52.710;6.398;2023-12-14T09:48:43;19.25;;;11.90;;
52124;SDS011;38119;52.710;6.398;2023-12-14T09:51:10;24.73;;;15.52;;
52124;SDS011;38119;52.710;6.398;2023-12-14T09:53:37;25.48;;;16.30;;
52124;SDS011;38119;52.710;6.398;2023-12-14T09:56:03;27.27;;;19.40;;
52124;SDS011;38119;52.710;6.398;2023-12-14T09:58:31;29.77;;;20.27;;
52124;SDS011;38119;52.710;6.398;2023-12-14T10:00:58;22.52;;;14.45;;
52124;SDS011;38119;52.710;6.398;2023-12-14T10:03:27;17.83;;;11.57;;
52124;SDS011;38119;52.710;6.398;2023-12-14T10:05:54;19.83;;;11.23;;
52124;SDS011;38119;52.710;6.398;2023-12-14T10:08:20;17.85;;;11.23;;
52124;SDS011;38119;52.710;6.398;2023-12-14T10:10:47;19.67;;;10.43;;
52124;SDS011;38119;52.710;6.398;2023-12-14T10:13:14;18.33;;;11.43;;
52124;SDS011;38119;52.710;6.398;2023-12-14T10:15:43;18.17;;;10.80;;
52124;SDS011;38119;52.710;6.398;2023-12-14T10:18:11;19.00;;;10.88;;
52124;SDS011;38119;52.710;6.398;2023-12-14T10:20:37;21.77;;;14.23;;
52124;SDS011;38119;52.710;6.398;2023-12-14T10:23:04;25.40;;;21.65;;
52124;SDS011;38119;52.710;6.398;2023-12-14T10:25:31;27.08;;;20.40;;
52124;SDS011;38119;52.710;6.398;2023-12-14T10:27:57;20.95;;;13.63;;
52124;SDS011;38119;52.710;6.398;2023-12-14T10:30:25;19.23;;;11.73;;
52124;SDS011;38119;52.710;6.398;2023-12-14T10:32:50;15.90;;;9.20;;
52124;SDS011;38119;52.710;6.398;2023-12-14T10:35:16;17.65;;;10.27;;
52124;SDS011;38119;52.710;6.398;2023-12-14T10:37:42;17.60;;;9.70;;
52124;SDS011;38119;52.710;6.398;2023-12-14T10:40:09;17.65;;;8.95;;
52124;SDS011;38119;52.710;6.398;2023-12-14T10:42:38;19.38;;;9.13;;
52124;SDS011;38119;52.710;6.398;2023-12-14T10:45:06;15.52;;;9.77;;
52124;SDS011;38119;52.710;6.398;2023-12-14T10:47:33;17.17;;;9.68;;
52124;SDS011;38119;52.710;6.398;2023-12-14T10:50:00;15.20;;;9.30;;
52124;SDS011;38119;52.710;6.398;2023-12-14T10:52:26;15.95;;;9.27;;
52124;SDS011;38119;52.710;6.398;2023-12-14T10:54:55;16.85;;;10.05;;
52124;SDS011;38119;52.710;6.398;2023-12-14T10:57:24;16.10;;;9.10;;
52124;SDS011;38119;52.710;6.398;2023-12-14T10:59:50;14.90;;;9.25;;
52124;SDS011;38119;52.710;6.398;2023-12-14T11:02:24;22.13;;;9.90;;
52124;SDS011;38119;52.710;6.398;2023-12-14T11:05:02;16.38;;;8.90;;
52124;SDS011;38119;52.710;6.398;2023-12-14T11:10:11;17.30;;;9.95;;
52124;SDS011;38119;52.710;6.398;2023-12-14T11:12:37;16.80;;;8.98;;
52124;SDS011;38119;52.710;6.398;2023-12-14T11:15:16;19.33;;;8.82;;
52124;SDS011;38119;52.710;6.398;2023-12-14T11:17:43;17.90;;;8.95;;
52124;SDS011;38119;52.710;6.398;2023-12-14T11:20:29;15.57;;;9.25;;
52124;SDS011;38119;52.710;6.398;2023-12-14T11:22:55;15.23;;;9.13;;
52124;SDS011;38119;52.710;6.398;2023-12-14T11:25:22;17.30;;;9.25;;
52124;SDS011;38119;52.710;6.398;2023-12-14T11:27:49;19.75;;;9.07;;
52124;SDS011;38119;52.710;6.398;2023-12-14T11:30:15;18.90;;;9.35;;
52124;SDS011;38119;52.710;6.398;2023-12-14T11:32:41;14.40;;;8.88;;
52124;SDS011;38119;52.710;6.398;2023-12-14T11:35:07;16.50;;;8.82;;
52124;SDS011;38119;52.710;6.398;2023-12-14T11:37:35;14.93;;;9.20;;
52124;SDS011;38119;52.710;6.398;2023-12-14T11:40:01;18.15;;;10.02;;
52124;SDS011;38119;52.710;6.398;2023-12-14T11:42:30;17.90;;;9.57;;
52124;SDS011;38119;52.710;6.398;2023-12-14T11:44:57;14.38;;;8.38;;
52124;SDS011;38119;52.710;6.398;2023-12-14T11:47:22;17.02;;;9.30;;
52124;SDS011;38119;52.710;6.398;2023-12-14T11:49:48;15.23;;;8.00;;
52124;SDS011;38119;52.710;6.398;2023-12-14T11:52:13;16.02;;;9.00;;
52124;SDS011;38119;52.710;6.398;2023-12-14T11:54:39;15.75;;;8.70;;
52124;SDS011;38119;52.710;6.398;2023-12-14T11:57:05;15.45;;;9.65;;
52124;SDS011;38119;52.710;6.398;2023-12-14T11:59:34;17.35;;;8.93;;
52124;SDS011;38119;52.710;6.398;2023-12-14T12:02:00;18.27;;;8.75;;
52124;SDS011;38119;52.710;6.398;2023-12-14T12:04:26;13.98;;;8.50;;
52124;SDS011;38119;52.710;6.398;2023-12-14T12:06:59;13.80;;;8.40;;
52124;SDS011;38119;52.710;6.398;2023-12-14T12:09:36;15.82;;;9.10;;
52124;SDS011;38119;52.710;6.398;2023-12-14T12:12:06;15.30;;;8.77;;
52124;SDS011;38119;52.710;6.398;2023-12-14T12:14:36;14.07;;;8.77;;
52124;SDS011;38119;52.710;6.398;2023-12-14T12:17:03;16.38;;;9.68;;
52124;SDS011;38119;52.710;6.398;2023-12-14T12:19:31;16.55;;;9.32;;
52124;SDS011;38119;52.710;6.398;2023-12-14T12:21:58;16.80;;;9.55;;
52124;SDS011;38119;52.710;6.398;2023-12-14T12:24:23;17.27;;;8.98;;
52124;SDS011;38119;52.710;6.398;2023-12-14T12:26:49;16.20;;;9.75;;
52124;SDS011;38119;52.710;6.398;2023-12-14T12:29:15;17.75;;;9.15;;
52124;SDS011;38119;52.710;6.398;2023-12-14T12:31:41;17.25;;;9.20;;
52124;SDS011;38119;52.710;6.398;2023-12-14T12:34:08;16.50;;;9.30;;
52124;SDS011;38119;52.710;6.398;2023-12-14T12:36:33;16.60;;;9.25;;
52124;SDS011;38119;52.710;6.398;2023-12-14T12:38:59;15.73;;;9.35;;
52124;SDS011;38119;52.710;6.398;2023-12-14T12:41:24;16.38;;;9.13;;
52124;SDS011;38119;52.710;6.398;2023-12-14T12:43:51;13.88;;;9.15;;
52124;SDS011;38119;52.710;6.398;2023-12-14T12:46:17;17.98;;;9.27;;
52124;SDS011;38119;52.710;6.398;2023-12-14T12:48:43;15.93;;;9.02;;
52124;SDS011;38119;52.710;6.398;2023-12-14T12:51:09;16.35;;;9.18;;
52124;SDS011;38119;52.710;6.398;2023-12-14T12:53:34;15.82;;;9.35;;
52124;SDS011;38119;52.710;6.398;2023-12-14T12:56:00;13.85;;;9.18;;
52124;SDS011;38119;52.710;6.398;2023-12-14T12:58:26;18.50;;;9.88;;
52124;SDS011;38119;52.710;6.398;2023-12-14T13:00:52;15.77;;;8.70;;
52124;SDS011;38119;52.710;6.398;2023-12-14T13:03:17;16.13;;;8.73;;
52124;SDS011;38119;52.710;6.398;2023-12-14T13:05:43;15.15;;;8.73;;
52124;SDS011;38119;52.710;6.398;2023-12-14T13:08:09;16.42;;;8.80;;
52124;SDS011;38119;52.710;6.398;2023-12-14T13:10:34;19.73;;;9.23;;
52124;SDS011;38119;52.710;6.398;2023-12-14T13:13:02;18.85;;;9.73;;
52124;SDS011;38119;52.710;6.398;2023-12-14T13:15:29;17.67;;;8.90;;
52124;SDS011;38119;52.710;6.398;2023-12-14T13:17:56;15.60;;;9.75;;
52124;SDS011;38119;52.710;6.398;2023-12-14T13:20:22;18.15;;;9.75;;
52124;SDS011;38119;52.710;6.398;2023-12-14T13:22:48;16.55;;;9.88;;
52124;SDS011;38119;52.710;6.398;2023-12-14T13:25:14;16.58;;;9.55;;
52124;SDS011;38119;52.710;6.398;2023-12-14T13:27:40;15.93;;;9.32;;
52124;SDS011;38119;52.710;6.398;2023-12-14T13:30:06;18.95;;;9.95;;
52124;SDS011;38119;52.710;6.398;2023-12-14T13:32:33;16.40;;;9.75;;
52124;SDS011;38119;52.710;6.398;2023-12-14T13:34:59;18.40;;;9.70;;
52124;SDS011;38119;52.710;6.398;2023-12-14T13:37:25;16.92;;;9.98;;
52124;SDS011;38119;52.710;6.398;2023-12-14T13:39:51;16.45;;;9.50;;
52124;SDS011;38119;52.710;6.398;2023-12-14T13:42:18;16.77;;;9.75;;
52124;SDS011;38119;52.710;6.398;2023-12-14T13:44:44;16.17;;;9.48;;
52124;SDS011;38119;52.710;6.398;2023-12-14T13:47:11;18.05;;;9.95;;
52124;SDS011;38119;52.710;6.398;2023-12-14T13:49:37;15.43;;;9.40;;
52124;SDS011;38119;52.710;6.398;2023-12-14T13:52:03;16.40;;;9.35;;
52124;SDS011;38119;52.710;6.398;2023-12-14T13:54:29;16.92;;;9.93;;
52124;SDS011;38119;52.710;6.398;2023-12-14T13:56:55;17.92;;;9.20;;
52124;SDS011;38119;52.710;6.398;2023-12-14T13:59:20;21.23;;;9.85;;
52124;SDS011;38119;52.710;6.398;2023-12-14T14:01:52;15.65;;;9.10;;
52124;SDS011;38119;52.710;6.398;2023-12-14T14:04:17;17.10;;;9.73;;
52124;SDS011;38119;52.710;6.398;2023-12-14T14:06:43;18.40;;;9.88;;
52124;SDS011;38119;52.710;6.398;2023-12-14T14:09:09;18.63;;;10.10;;
52124;SDS011;38119;52.710;6.398;2023-12-14T14:11:36;17.48;;;9.15;;
52124;SDS011;38119;52.710;6.398;2023-12-14T14:14:02;18.15;;;10.75;;
52124;SDS011;38119;52.710;6.398;2023-12-14T14:16:29;19.30;;;10.23;;
52124;SDS011;38119;52.710;6.398;2023-12-14T14:18:56;18.80;;;10.70;;
52124;SDS011;38119;52.710;6.398;2023-12-14T14:21:22;23.65;;;10.20;;
52124;SDS011;38119;52.710;6.398;2023-12-14T14:23:48;18.45;;;10.10;;
52124;SDS011;38119;52.710;6.398;2023-12-14T14:26:13;16.05;;;10.05;;
52124;SDS011;38119;52.710;6.398;2023-12-14T14:28:39;21.05;;;10.40;;